createdAt,value
2022-07-30T00:02:06.375Z,101460.91
2022-07-30T00:04:33.528Z,101458.56
2022-07-30T00:07:01.089Z,101457.81
2022-07-30T00:09:28.483Z,101456.19
2022-07-30T00:11:55.574Z,101459.00
2022-07-30T00:14:22.672Z,101453.09
2022-07-30T00:16:49.868Z,101450.63
2022-07-30T00:19:17.037Z,101459.44
2022-07-30T00:21:45.643Z,101456.03
2022-07-30T00:24:12.859Z,101456.22
2022-07-30T00:26:39.909Z,101449.38
2022-07-30T00:29:07.260Z,101456.47
2022-07-30T00:31:34.369Z,101445.31
2022-07-30T00:34:01.457Z,101452.50
2022-07-30T00:36:28.607Z,101450.00
2022-07-30T00:38:55.933Z,101462.31
2022-07-30T00:41:23.638Z,101461.56
2022-07-30T00:43:51.078Z,101460.84
2022-07-30T00:46:18.317Z,101460.09
2022-07-30T00:48:46.358Z,101457.56
2022-07-30T00:51:13.574Z,101453.31
2022-07-30T00:53:40.814Z,101461.31
2022-07-30T00:56:07.984Z,101459.69
2022-07-30T00:58:35.231Z,101461.53
2022-07-30T01:01:02.388Z,101458.13
2022-07-30T01:03:29.472Z,101460.84
2022-07-30T01:05:56.780Z,101468.75
2022-07-30T01:08:23.744Z,101466.38
2022-07-30T01:10:50.955Z,101462.97
2022-07-30T01:13:18.287Z,101466.56
2022-07-30T01:15:45.281Z,101456.13
2022-07-30T01:18:13.771Z,101462.31
2022-07-30T01:20:52.308Z,101458.13
2022-07-30T01:23:38.313Z,101461.69
2022-07-30T01:26:11.003Z,101462.66
2022-07-30T01:28:41.777Z,101464.53
2022-07-30T01:31:11.128Z,101456.75
2022-07-30T01:33:42.444Z,101461.19
2022-07-30T01:36:14.393Z,101463.06
2022-07-30T01:38:46.503Z,101462.31
2022-07-30T01:41:15.507Z,101452.94
2022-07-30T01:43:45.465Z,101460.78
2022-07-30T01:46:15.085Z,101460.84
2022-07-30T01:48:44.316Z,101465.31
2022-07-30T01:51:13.397Z,101466.31
2022-07-30T01:53:42.985Z,101469.03
2022-07-30T01:56:12.876Z,101469.06
2022-07-30T01:58:46.817Z,101473.56
2022-07-30T02:01:14.132Z,101469.34
2022-07-30T02:03:41.772Z,101472.13
2022-07-30T02:06:22.002Z,101475.59
2022-07-30T02:08:55.322Z,101482.69
2022-07-30T02:11:41.474Z,101476.72
2022-07-30T02:14:25.170Z,101485.53
2022-07-30T02:16:56.583Z,101488.19
2022-07-30T02:19:33.125Z,101488.28
2022-07-30T02:22:08.620Z,101486.66
2022-07-30T02:24:37.927Z,101486.75
2022-07-30T02:27:20.098Z,101487.78
2022-07-30T02:29:48.901Z,101490.50
2022-07-30T02:32:20.441Z,101489.69
2022-07-30T02:34:52.001Z,101482.84
2022-07-30T02:37:41.625Z,101496.88
2022-07-30T02:40:14.931Z,101488.28
2022-07-30T02:42:43.794Z,101496.19
2022-07-30T02:45:12.685Z,101497.16
2022-07-30T02:47:41.057Z,101503.31
2022-07-30T02:50:10.828Z,101499.13
2022-07-30T02:52:40.484Z,101502.66
2022-07-30T02:55:09.757Z,101500.09
2022-07-30T02:57:43.251Z,101503.72
2022-07-30T03:00:12.027Z,101502.88
2022-07-30T03:02:40.701Z,101502.13
2022-07-30T03:05:14.022Z,101507.38
2022-07-30T03:07:42.242Z,101500.53
2022-07-30T03:10:11.283Z,101504.09
2022-07-30T03:12:40.682Z,101505.03
2022-07-30T03:15:08.352Z,101509.50
2022-07-30T03:17:40.435Z,101509.63
2022-07-30T03:20:17.681Z,101508.75
2022-07-30T03:22:48.238Z,101505.44
2022-07-30T03:25:19.703Z,101501.16
2022-07-30T03:27:47.475Z,101498.72
2022-07-30T03:30:14.693Z,101507.38
2022-07-30T03:32:42.884Z,101505.72
2022-07-30T03:35:17.223Z,101507.63
2022-07-30T03:37:46.183Z,101516.31
2022-07-30T03:40:14.356Z,101508.56
2022-07-30T03:42:42.071Z,101503.44
2022-07-30T03:45:09.719Z,101514.81
2022-07-30T03:47:39.529Z,101515.78
2022-07-30T03:50:06.842Z,101519.38
2022-07-30T03:52:40.842Z,101512.47
2022-07-30T03:55:11.300Z,101516.94
2022-07-30T03:57:38.994Z,101525.59
2022-07-30T04:00:08.677Z,101525.63
2022-07-30T04:02:45.849Z,101530.84
2022-07-30T04:05:13.899Z,101527.44
2022-07-30T04:07:44.822Z,101524.84
2022-07-30T04:10:12.988Z,101533.59
2022-07-30T04:12:40.016Z,101531.91
2022-07-30T04:16:36.999Z,101532.78
2022-07-30T04:18:01.440Z,101538.91
2022-07-30T04:20:33.081Z,101548.47
2022-07-30T04:23:02.119Z,101550.28
2022-07-30T04:25:30.611Z,101558.06
2022-07-30T04:28:03.340Z,101554.59
2022-07-30T04:30:31.363Z,101560.72
2022-07-30T04:32:58.337Z,101564.19
2022-07-30T04:35:51.256Z,101565.88
2022-07-30T04:38:17.487Z,101562.44
2022-07-30T04:40:44.476Z,101566.75
2022-07-30T04:43:11.515Z,101565.81
2022-07-30T04:45:40.361Z,101569.25
2022-07-30T04:48:07.803Z,101577.91
2022-07-30T04:50:38.844Z,101569.25
2022-07-30T04:53:06.034Z,101569.25
2022-07-30T04:55:35.751Z,101582.25
2022-07-30T04:58:03.418Z,101584.75
2022-07-30T05:00:32.814Z,101585.63
2022-07-30T05:03:02.448Z,101583.88
2022-07-30T05:05:32.441Z,101582.06
2022-07-30T05:08:01.284Z,101589.06
2022-07-30T05:10:28.324Z,101588.19
2022-07-30T05:12:55.322Z,101589.88
2022-07-30T05:15:23.272Z,101595.94
2022-07-30T05:18:03.842Z,101603.66
2022-07-30T05:20:30.702Z,101608.03
2022-07-30T05:22:58.289Z,101602.78
2022-07-30T05:25:25.182Z,101608.75
2022-07-30T05:27:52.687Z,101602.53
2022-07-30T05:30:19.793Z,101602.53
2022-07-30T05:32:54.938Z,101610.28
2022-07-30T05:35:23.367Z,101609.38
2022-07-30T05:37:50.362Z,101602.38
2022-07-30T05:40:17.366Z,101611.81
2022-07-30T05:42:44.322Z,101619.56
2022-07-30T05:45:11.350Z,101616.09
2022-07-30T05:47:38.267Z,101618.63
2022-07-30T05:50:05.713Z,101621.09
2022-07-30T05:52:33.669Z,101621.91
2022-07-30T05:55:00.660Z,101620.22
2022-07-30T05:57:27.518Z,101617.50
2022-07-30T05:59:54.546Z,101625.25
2022-07-30T06:02:24.512Z,101627.78
2022-07-30T06:04:52.048Z,101627.72
2022-07-30T06:07:19.124Z,101624.19
2022-07-30T06:09:46.169Z,101625.03
2022-07-30T06:12:13.098Z,101624.03
2022-07-30T06:14:40.214Z,101631.84
2022-07-30T06:17:07.214Z,101637.81
2022-07-30T06:19:34.206Z,101633.41
2022-07-30T06:22:05.993Z,101633.31
2022-07-30T06:24:34.331Z,101629.97
2022-07-30T06:27:01.927Z,101642.84
2022-07-30T06:29:29.141Z,101646.22
2022-07-30T06:31:56.116Z,101646.16
2022-07-30T06:34:23.310Z,101641.69
2022-07-30T06:36:50.447Z,101643.41
2022-07-30T06:39:56.861Z,101650.25
2022-07-30T06:42:04.791Z,101652.75
2022-07-30T06:44:31.828Z,101658.75
2022-07-30T06:47:01.854Z,101644.06
2022-07-30T06:49:33.116Z,101648.28
2022-07-30T06:52:00.460Z,101655.06
2022-07-30T06:54:27.557Z,101654.16
2022-07-30T06:56:54.745Z,101655.72
2022-07-30T06:59:21.781Z,101658.25
2022-07-30T07:01:49.452Z,101653.88
2022-07-30T07:04:16.738Z,101661.59
2022-07-30T07:06:43.696Z,101667.75
2022-07-30T07:09:10.648Z,101666.78
2022-07-30T07:11:37.650Z,101664.88
2022-07-30T07:14:04.991Z,101666.53
2022-07-30T07:16:32.157Z,101666.44
2022-07-30T07:18:59.091Z,101660.22
2022-07-30T07:21:26.017Z,101663.50
2022-07-30T07:23:52.995Z,101673.69
2022-07-30T07:26:19.870Z,101672.59
2022-07-30T07:28:46.858Z,101675.00
2022-07-30T07:32:02.768Z,101674.75
2022-07-30T07:34:00.789Z,101676.31
2022-07-30T07:36:28.493Z,101680.44
2022-07-30T07:38:55.512Z,101673.94
2022-07-30T07:41:22.388Z,101670.28
2022-07-30T07:43:49.319Z,101677.81
2022-07-30T07:46:33.911Z,101680.22
2022-07-30T07:49:01.909Z,101669.50
2022-07-30T07:51:48.223Z,101667.56
2022-07-30T07:54:22.299Z,101675.09
2022-07-30T07:56:52.702Z,101659.13
2022-07-30T07:59:20.129Z,101660.63
2022-07-30T08:01:49.856Z,101657.81
2022-07-30T08:04:17.854Z,101666.88
2022-07-30T08:06:45.015Z,101657.88
2022-07-30T08:09:12.082Z,101664.44
2022-07-30T08:11:39.348Z,101662.44
2022-07-30T08:14:06.314Z,101655.16
2022-07-30T08:16:34.510Z,101658.22
2022-07-30T08:19:01.768Z,101656.22
2022-07-30T08:21:28.657Z,101649.78
2022-07-30T08:23:55.678Z,101646.78
2022-07-30T08:26:22.486Z,101650.09
2022-07-30T08:28:49.719Z,101655.69
2022-07-30T08:31:19.819Z,101654.47
2022-07-30T08:33:46.789Z,101660.91
2022-07-30T08:36:13.743Z,101650.94
2022-07-30T08:38:40.770Z,101647.91
2022-07-30T08:41:11.489Z,101651.84
2022-07-30T08:43:39.613Z,101660.97
2022-07-30T08:46:10.353Z,101662.38
2022-07-30T08:48:38.067Z,101662.72
2022-07-30T08:51:05.420Z,101655.41
2022-07-30T08:53:34.100Z,101660.09
2022-07-30T08:56:01.859Z,101662.31
2022-07-30T08:58:31.859Z,101654.06
2022-07-30T09:00:58.779Z,101651.91
2022-07-30T09:03:25.860Z,101651.47
2022-07-30T09:05:52.874Z,101653.69
2022-07-30T09:08:20.030Z,101654.25
2022-07-30T09:10:50.656Z,101655.53
2022-07-30T09:13:41.784Z,101656.94
2022-07-30T09:16:26.136Z,101658.44
2022-07-30T09:18:54.305Z,101656.34
2022-07-30T09:21:25.242Z,101661.25
2022-07-30T09:24:03.824Z,101651.16
2022-07-30T09:26:33.266Z,101654.19
2022-07-30T09:29:20.274Z,101652.81
2022-07-30T09:32:02.086Z,101657.69
2022-07-30T09:34:31.241Z,101650.56
2022-07-30T09:37:00.689Z,101663.44
2022-07-30T09:39:36.518Z,101658.75
2022-07-30T09:42:16.687Z,101661.06
2022-07-30T09:44:44.355Z,101651.41
2022-07-30T09:47:33.208Z,101652.69
2022-07-30T09:50:10.199Z,101656.72
2022-07-30T09:52:44.283Z,101657.56
2022-07-30T09:55:41.870Z,101667.69
2022-07-30T09:58:10.332Z,101665.69
2022-07-30T10:00:42.323Z,101658.63
2022-07-30T10:03:33.521Z,101654.38
2022-07-30T10:06:06.338Z,101654.19
2022-07-30T10:08:46.621Z,101655.63
2022-07-30T10:11:17.441Z,101644.81
2022-07-30T10:13:54.728Z,101646.44
2022-07-30T10:16:21.933Z,101644.41
2022-07-30T10:18:51.288Z,101646.72
2022-07-30T10:21:19.818Z,101641.25
2022-07-30T10:23:50.525Z,101637.59
2022-07-30T10:26:18.322Z,101647.63
2022-07-30T10:28:48.054Z,101648.16
2022-07-30T10:31:49.412Z,101652.22
2022-07-30T10:34:02.825Z,101646.50
2022-07-30T10:36:31.282Z,101651.44
2022-07-30T10:39:01.075Z,101648.38
2022-07-30T10:41:48.234Z,101655.94
2022-07-30T10:44:23.144Z,101658.34
2022-07-30T10:46:57.628Z,101658.06
2022-07-30T10:49:25.905Z,101655.16
2022-07-30T10:51:57.483Z,101660.19
2022-07-30T10:54:33.709Z,101646.13
2022-07-30T10:57:23.017Z,101643.22
2022-07-30T11:00:04.083Z,101640.22
2022-07-30T11:02:36.700Z,101642.56
2022-07-30T11:05:27.315Z,101630.69
2022-07-30T11:08:31.795Z,101629.28
2022-07-30T11:11:19.590Z,101635.09
2022-07-30T11:13:55.101Z,101633.13
2022-07-30T11:16:45.916Z,101633.41
2022-07-30T11:19:56.876Z,101628.78
2022-07-30T11:22:50.876Z,101624.63
2022-07-30T11:25:50.669Z,101620.84
2022-07-30T11:28:37.915Z,101625.75
2022-07-30T11:31:37.164Z,101619.53
2022-07-30T11:34:19.508Z,101613.84
2022-07-30T11:37:18.459Z,101623.09
2022-07-30T11:39:55.614Z,101614.19
2022-07-30T11:42:29.863Z,101626.31
2022-07-30T11:45:15.449Z,101630.47
2022-07-30T11:47:49.123Z,101622.44
2022-07-30T11:50:19.121Z,101623.19
2022-07-30T11:52:50.580Z,101614.97
2022-07-30T11:55:36.359Z,101615.63
2022-07-30T11:58:06.889Z,101622.41
2022-07-30T12:00:42.644Z,101615.13
2022-07-30T12:03:11.588Z,101628.94
2022-07-30T12:05:40.223Z,101625.88
2022-07-30T12:08:07.340Z,101620.41
2022-07-30T12:10:36.158Z,101614.06
2022-07-30T12:13:16.795Z,101608.13
2022-07-30T12:15:48.608Z,101616.59
2022-07-30T12:18:30.062Z,101606.00
2022-07-30T12:21:01.276Z,101608.25
2022-07-30T12:23:29.647Z,101601.81
2022-07-30T12:25:57.560Z,101600.53
2022-07-30T12:28:29.417Z,101594.97
2022-07-30T12:30:58.324Z,101594.97
2022-07-30T12:33:25.437Z,101598.09
2022-07-30T12:35:54.887Z,101592.66
2022-07-30T12:38:23.261Z,101589.81
2022-07-30T12:41:10.510Z,101600.88
2022-07-30T12:43:56.380Z,101600.75
2022-07-30T12:46:26.893Z,101602.56
2022-07-30T12:48:57.940Z,101605.09
2022-07-30T12:51:27.215Z,101601.41
2022-07-30T12:53:56.736Z,101598.66
2022-07-30T12:56:29.265Z,101599.50
2022-07-30T12:58:58.541Z,101601.41
2022-07-30T13:01:46.021Z,101601.31
2022-07-30T13:04:14.439Z,101598.66
2022-07-30T13:06:42.453Z,101592.31
2022-07-30T13:09:21.978Z,101590.38
2022-07-30T13:11:51.197Z,101585.94
2022-07-30T13:14:18.113Z,101595.47
2022-07-30T13:16:45.628Z,101603.34
2022-07-30T13:19:13.255Z,101601.53
2022-07-30T13:21:49.768Z,101596.03
2022-07-30T13:24:18.499Z,101590.72
2022-07-30T13:26:46.053Z,101589.47
2022-07-30T13:29:13.681Z,101595.41
2022-07-30T13:31:43.113Z,101594.56
2022-07-30T13:34:11.989Z,101595.19
2022-07-30T13:36:39.321Z,101598.78
2022-07-30T13:39:06.431Z,101595.19
2022-07-30T13:41:34.399Z,101596.03
2022-07-30T13:44:01.355Z,101588.94
2022-07-30T13:46:28.343Z,101604.94
2022-07-30T13:48:55.448Z,101603.16
2022-07-30T13:51:22.438Z,101597.94
2022-07-30T13:53:49.419Z,101595.19
2022-07-30T13:56:16.899Z,101590.72
2022-07-30T13:58:47.923Z,101583.63
2022-07-30T14:01:17.731Z,101580.34
2022-07-30T14:03:50.602Z,101587.13
2022-07-30T14:06:19.262Z,101584.59
2022-07-30T14:08:46.570Z,101580.22
2022-07-30T14:11:13.881Z,101575.03
2022-07-30T14:13:41.013Z,101579.28
2022-07-30T14:16:22.975Z,101573.03
2022-07-30T14:18:57.407Z,101575.59
2022-07-30T14:21:24.940Z,101568.91
2022-07-30T14:23:51.914Z,101571.44
2022-07-30T14:26:19.235Z,101562.75
2022-07-30T14:28:46.261Z,101565.41
2022-07-30T14:31:13.258Z,101567.84
2022-07-30T14:33:40.237Z,101566.97
2022-07-30T14:36:07.267Z,101559.13
2022-07-30T14:38:34.265Z,101558.38
2022-07-30T14:41:01.217Z,101556.47
2022-07-30T14:43:28.089Z,101555.53
2022-07-30T14:45:55.066Z,101553.63
2022-07-30T14:48:21.909Z,101554.25
2022-07-30T14:51:12.881Z,101548.09
2022-07-30T14:53:35.881Z,101556.81
2022-07-30T14:56:03.105Z,101555.63
2022-07-30T14:58:29.968Z,101552.88
2022-07-30T15:00:57.118Z,101559.75
2022-07-30T15:03:25.872Z,101542.16
2022-07-30T15:05:53.043Z,101538.75
2022-07-30T15:08:20.392Z,101557.03
2022-07-30T15:10:47.543Z,101563.94
2022-07-30T15:13:15.505Z,101550.88
2022-07-30T15:15:43.375Z,101558.72
2022-07-30T15:18:13.916Z,101550.69
2022-07-30T15:20:40.928Z,101545.56
2022-07-30T15:23:13.086Z,101549.72
2022-07-30T15:25:41.522Z,101547.91
2022-07-30T15:28:08.721Z,101545.28
2022-07-30T15:30:36.430Z,101557.34
2022-07-30T15:33:03.363Z,101559.06
2022-07-30T15:35:30.275Z,101557.47
2022-07-30T15:37:59.403Z,101559.38
2022-07-30T15:40:26.421Z,101550.56
2022-07-30T15:42:53.632Z,101552.16
2022-07-30T15:45:20.555Z,101548.66
2022-07-30T15:47:47.562Z,101553.84
2022-07-30T15:50:16.704Z,101543.25
2022-07-30T15:52:44.575Z,101537.72
2022-07-30T15:55:12.349Z,101541.22
2022-07-30T15:57:40.497Z,101539.44
2022-07-30T16:00:08.817Z,101543.66
2022-07-30T16:02:36.911Z,101541.97
2022-07-30T16:05:13.222Z,101556.81
2022-07-30T16:07:41.085Z,101540.91
2022-07-30T16:10:08.441Z,101543.34
2022-07-30T16:12:35.482Z,101540.91
2022-07-30T16:15:02.468Z,101545.16
2022-07-30T16:17:29.423Z,101544.31
2022-07-30T16:19:56.374Z,101537.19
2022-07-30T16:22:24.213Z,101524.38
2022-07-30T16:24:51.761Z,101543.44
2022-07-30T16:27:18.820Z,101544.31
2022-07-30T16:29:45.716Z,101536.44
2022-07-30T16:32:12.789Z,101528.72
2022-07-30T16:34:39.757Z,101536.56
2022-07-30T16:37:06.698Z,101531.38
2022-07-30T16:39:33.577Z,101530.75
2022-07-30T16:42:01.092Z,101534.13
2022-07-30T16:44:31.603Z,101529.69
2022-07-30T16:46:58.683Z,101532.34
2022-07-30T16:49:26.295Z,101530.63
2022-07-30T16:51:54.159Z,101527.34
2022-07-30T16:54:21.517Z,101522.88
2022-07-30T16:56:52.690Z,101524.69
2022-07-30T16:59:20.515Z,101534.34
2022-07-30T17:01:48.479Z,101529.06
2022-07-30T17:04:15.695Z,101532.63
2022-07-30T17:06:44.384Z,101525.66
2022-07-30T17:09:13.192Z,101529.13
2022-07-30T17:11:51.883Z,101525.88
2022-07-30T17:14:21.337Z,101518.00
2022-07-30T17:16:48.331Z,101531.56
2022-07-30T17:19:15.214Z,101528.91
2022-07-30T17:21:42.169Z,101538.75
2022-07-30T17:24:13.561Z,101540.69
2022-07-30T17:26:43.461Z,101537.28
2022-07-30T17:29:14.705Z,101540.91
2022-07-30T17:31:45.957Z,101537.50
2022-07-30T17:34:15.187Z,101544.69
2022-07-30T17:36:47.023Z,101546.63
2022-07-30T17:40:24.701Z,101542.25
2022-07-30T17:42:06.330Z,101544.28
2022-07-30T17:44:35.332Z,101542.38
2022-07-30T17:47:02.266Z,101542.59
2022-07-30T17:49:30.244Z,101541.63
2022-07-30T17:51:57.592Z,101546.44
2022-07-30T17:54:24.689Z,101554.38
2022-07-30T17:56:51.722Z,101549.28
2022-07-30T17:59:18.635Z,101549.28
2022-07-30T18:01:45.762Z,101551.94
2022-07-30T18:04:12.597Z,101551.19
2022-07-30T18:06:39.645Z,101562.84
2022-07-30T18:09:06.820Z,101560.38
2022-07-30T18:11:33.725Z,101548.31
2022-07-30T18:14:00.599Z,101550.22
2022-07-30T18:16:27.494Z,101552.97
2022-07-30T18:18:54.588Z,101561.84
2022-07-30T18:21:21.478Z,101559.53
2022-07-30T18:23:48.439Z,101562.47
2022-07-30T18:26:15.511Z,101555.56
2022-07-30T18:28:42.480Z,101563.53
2022-07-30T18:31:09.649Z,101567.13
2022-07-30T18:33:36.606Z,101559.47
2022-07-30T18:36:03.818Z,101568.28
2022-07-30T18:38:30.679Z,101565.91
2022-07-30T18:40:57.814Z,101564.31
2022-07-30T18:43:28.362Z,101568.03
2022-07-30T18:45:56.657Z,101565.59
2022-07-30T18:48:24.639Z,101572.00
2022-07-30T18:50:53.014Z,101580.16
2022-07-30T18:53:19.910Z,101569.97
2022-07-30T18:55:47.065Z,101572.72
2022-07-30T18:58:14.003Z,101565.94
2022-07-30T19:00:44.078Z,101573.34
2022-07-30T19:03:16.380Z,101573.34
2022-07-30T19:05:45.221Z,101570.13
2022-07-30T19:08:12.125Z,101562.50
2022-07-30T19:10:40.017Z,101565.63
2022-07-30T19:13:07.361Z,101558.72
2022-07-30T19:15:34.350Z,101568.75
2022-07-30T19:18:01.559Z,101569.03
2022-07-30T19:20:31.547Z,101573.59
2022-07-30T19:23:06.957Z,101575.66
2022-07-30T19:25:36.164Z,101570.09
2022-07-30T19:28:04.573Z,101574.44
2022-07-30T19:30:32.558Z,101567.94
2022-07-30T19:33:09.166Z,101576.75
2022-07-30T19:35:41.824Z,101568.50
2022-07-30T19:38:09.904Z,101571.44
2022-07-30T19:40:39.601Z,101578.63
2022-07-30T19:43:10.126Z,101586.84
2022-07-30T19:45:47.291Z,101582.78
2022-07-30T19:48:28.658Z,101588.38
2022-07-30T19:50:58.253Z,101586.91
2022-07-30T19:53:26.645Z,101580.97
2022-07-30T19:56:01.343Z,101591.63
2022-07-30T19:58:28.383Z,101590.09
2022-07-30T20:00:55.385Z,101593.00
2022-07-30T20:03:25.987Z,101585.38
2022-07-30T20:06:00.178Z,101581.13
2022-07-30T20:08:28.474Z,101590.19
2022-07-30T20:10:57.803Z,101587.81
2022-07-30T20:13:45.327Z,101591.56
2022-07-30T20:16:14.910Z,101590.91
2022-07-30T20:18:42.940Z,101591.09
2022-07-30T20:21:15.067Z,101587.84
2022-07-30T20:23:43.201Z,101589.72
2022-07-30T20:26:13.897Z,101592.66
2022-07-30T20:28:52.429Z,101592.91
2022-07-30T20:31:20.011Z,101593.84
2022-07-30T20:33:49.510Z,101594.13
2022-07-30T20:36:18.237Z,101592.56
2022-07-30T20:38:47.042Z,101597.84
2022-07-30T20:41:15.035Z,101600.59
2022-07-30T20:46:29.290Z,101601.97
2022-07-30T20:48:56.360Z,101589.78
2022-07-30T20:51:33.780Z,101600.53
2022-07-30T20:54:01.200Z,101598.91
2022-07-30T20:56:28.733Z,101602.56
2022-07-30T20:58:56.974Z,101599.25
2022-07-30T21:01:23.979Z,101598.41
2022-07-30T21:03:51.018Z,101589.91
2022-07-30T21:06:19.392Z,101591.09
2022-07-30T21:08:46.344Z,101599.03
2022-07-30T21:11:13.377Z,101602.84
2022-07-30T21:13:41.953Z,101599.63
2022-07-30T21:16:15.923Z,101590.06
2022-07-30T21:18:50.086Z,101590.34
2022-07-30T21:21:30.843Z,101592.31
2022-07-30T21:24:06.424Z,101585.47
2022-07-30T21:26:42.447Z,101584.69
2022-07-30T21:29:10.003Z,101583.06
2022-07-30T21:31:59.084Z,101584.25
2022-07-30T21:34:26.139Z,101575.84
2022-07-30T21:36:54.422Z,101589.81
2022-07-30T21:39:28.927Z,101577.00
2022-07-30T21:41:56.956Z,101582.38
2022-07-30T21:44:24.342Z,101584.34
2022-07-30T21:46:52.388Z,101578.34
2022-07-30T21:49:20.592Z,101572.34
2022-07-30T21:51:48.038Z,101578.69
2022-07-30T21:54:28.614Z,101570.19
2022-07-30T21:56:58.305Z,101570.25
2022-07-30T21:59:27.605Z,101571.22
2022-07-30T22:01:55.643Z,101577.44
2022-07-30T22:04:22.833Z,101572.31
2022-07-30T22:06:51.432Z,101572.53
2022-07-30T22:09:33.426Z,101574.25
2022-07-30T22:12:09.196Z,101568.22
2022-07-30T22:14:39.426Z,101567.44
2022-07-30T22:17:22.345Z,101565.13
2022-07-30T22:19:50.232Z,101559.94
2022-07-30T22:22:27.680Z,101566.91
2022-07-30T22:24:57.306Z,101564.44
2022-07-30T22:27:27.015Z,101572.41
2022-07-30T22:29:55.832Z,101567.25
2022-07-30T22:32:23.995Z,101565.69
2022-07-30T22:34:51.719Z,101564.03
2022-07-30T22:37:21.537Z,101552.88
2022-07-30T22:39:51.435Z,101560.78
2022-07-30T22:42:24.261Z,101566.22
2022-07-30T22:44:52.638Z,101563.69
2022-07-30T22:47:21.478Z,101569.78
2022-07-30T22:50:07.999Z,101568.25
2022-07-30T22:52:39.432Z,101565.78
2022-07-30T22:55:09.077Z,101570.19
2022-07-30T22:57:37.755Z,101568.56
2022-07-30T23:00:07.306Z,101559.88
2022-07-30T23:02:39.737Z,101563.53
2022-07-30T23:05:08.471Z,101564.47
2022-07-30T23:07:39.686Z,101560.19
2022-07-30T23:10:17.206Z,101568.16
2022-07-30T23:12:18.423Z,101594.81
2022-07-30T23:12:48.750Z,101565.69
2022-07-30T23:15:15.924Z,101561.38
2022-07-30T23:17:43.708Z,101566.72
2022-07-30T23:20:13.930Z,101566.78
2022-07-30T23:22:41.183Z,101560.66
2022-07-30T23:25:12.959Z,101552.00
2022-07-30T23:27:41.136Z,101549.50
2022-07-30T23:30:09.583Z,101554.88
2022-07-30T23:32:36.960Z,101555.03
2022-07-30T23:35:04.990Z,101557.66
2022-07-30T23:37:48.620Z,101545.50
2022-07-30T23:40:19.879Z,101542.06
2022-07-30T23:42:47.827Z,101549.13
2022-07-30T23:45:14.873Z,101544.09
2022-07-30T23:48:01.688Z,101547.66
2022-07-30T23:50:30.061Z,101544.25
2022-07-30T23:52:57.072Z,101536.63
2022-07-30T23:55:24.039Z,101539.44
2022-07-30T23:57:51.159Z,101530.75
